Edon, OH (43518)

1:22 PM EST on January 25, 2015 (GMT -0500)
Bridgewater | Change Station
CLOSE
Current Station
Personal Weather Station
Location: Montpelier, OH
Elevation: 899 ft
Nearby Weather Stations

Elev 899 ft 41.63 °N, 84.66 °W | Updated 7 seconds ago

Snow
Snow
26.2 °F
Feels Like 14 °F
N
15.7
Wind Variable Wind from East
Gusts 18.2 mph

Today
High -- | Low -- °F
--% Chance of Precip.
Yesterday
High -- | Low -- °F
Precip. -- in
7:57 AM 5:45 PM
Waxing Crescent, 34% visible
Pressure 29.79 in
Visibility 5.0 miles
Clouds Overcast 1500 ft
Windchill 14 °F
Dew Point 22 °F
Humidity 83%
Rainfall 0.00 in
Snow Depth Not available.
UV 14.0 out of 12
Pollen .10 out of 12
Air Quality Not available.
Flu Activity Not available.
METAR KANQ 251835Z AUTO 09010KT 5SM OVC015 M04/M06 A2979 RMK

More Conditions Fewer Conditions

Pressure 29.79 in
Visibility 5.0 miles
Clouds Overcast 1500 ft
Windchill 14 °F
Dew Point 22 °F
Humidity 83%
Rainfall 0.00 in
Snow Depth Not available.
UV 14.0 out of 12
Pollen .10 out of 12
Air Quality Not available.
Flu Activity Not available.
METAR KANQ 251835Z AUTO 09010KT 5SM OVC015 M04/M06 A2979 RMK

More Conditions Fewer Conditions

10-Day Weather Forecast

Almanac

Astronomy

Jan. 25, 2015 Rise Set
Actual Time
Civil Twilight
Nautical Twilight
Astronomical Twilight
Moon
Length of Visible Light
Length of Day
Tomorrow will be .
, % of the Moon is Illuminated

Today's Extremes

State Highs State Lows

Community

WunderPhotos

Upload Photos

1,790,012 photos uploaded!

WunderBlogs® & News

Nearby

Air Quality

  Air Quality AQ Index Pollutant
Not available.

Snow Depth

Station Depth Elevation

Earthquake Activity

City Distance Mag. Time & Date
Minimum magnitude displayed is 2.5.

Coastal Water Temperatures

Place Temperature

Nearby Weather Stations